Grand Junction, CO (81507)

6:03 PM MST on February 10, 2016 (GMT -0700)
Orchard Mesa | | Change Station
CLOSE
Current Station
Personal Weather Station
Location: Grand Junction, CO
Elevation: 4678 ft
Nearby Weather Stations

Elev 4678 ft 39.04 °N, 108.52 °W | Updated 14 minutes ago

Partly Cloudy
Partly Cloudy
40.1 °F
Feels Like 40 °F
N
0.0
Wind Variable Wind from NE
Gusts 1.0 mph

Today
High -- | Low -- °F
--% Chance of Precip.
Yesterday
High -- | Low -- °F
Precip. -- in
Pressure 30.45 in
Visibility 10.0 miles
Clouds Clear
Windchill 40 °F
Dew Point 29 °F
Humidity 64%
Rainfall 0.00 in
Snow Depth Not available.
7:11 AM 5:45 PM
Waxing Crescent, 8% visible
METAR KGJT 110053Z 00000KT 10SM CLR 01/M02 A3037 RMK AO2 SLP311 T00111017
Pressure 30.45 in
Visibility 10.0 miles
Clouds Clear
Windchill 40 °F
Dew Point 29 °F
Humidity 64%
Rainfall 0.00 in
Snow Depth Not available.
7:11 AM 5:45 PM
Waxing Crescent, 8% visible
METAR KGJT 110053Z 00000KT 10SM CLR 01/M02 A3037 RMK AO2 SLP311 T00111017

10-Day Weather Forecast

Almanac

Astronomy

Feb. 10, 2016 Rise Set
Actual Time
Civil Twilight
Nautical Twilight
Astronomical Twilight
Moon
Length of Visible Light
Length of Day
Tomorrow will be .
, % of the Moon is Illuminated

Today's Extremes

State Highs State Lows

Community

WunderPhotos

Upload Photos

1,891,956 photos uploaded!

WunderBlog® & News

Nearby

Air Quality

  Air Quality AQ Index Pollutant
Not available.

Snow Depth

Station Depth Elevation

Earthquake Activity

City Distance Mag. Time & Date
Minimum magnitude displayed is 2.5.

Coastal Water Temperatures

Place Temperature

Stations

Nearby Weather Stations

Station Location Temp. Windchill Dew Point Humidity Wind Precip. Elev Updated Type
                   

Watches & Warnings

There are currently no watches in effect.